sensor_id;sensor_type;location;lat;lon;timestamp;temperature;humidity
16893;DHT22;8563;52.242;9.098;2023-03-19T00:02:15;10.90;99.90
16893;DHT22;8563;52.242;9.098;2023-03-19T00:04:47;10.90;99.90
16893;DHT22;8563;52.242;9.098;2023-03-19T00:07:21;10.90;99.90
16893;DHT22;8563;52.242;9.098;2023-03-19T00:09:53;10.90;99.90
16893;DHT22;8563;52.242;9.098;2023-03-19T00:12:25;10.90;99.90
16893;DHT22;8563;52.242;9.098;2023-03-19T00:14:57;11.00;99.90
16893;DHT22;8563;52.242;9.098;2023-03-19T00:17:30;11.00;99.90
16893;DHT22;8563;52.242;9.098;2023-03-19T00:20:02;11.00;99.90
16893;DHT22;8563;52.242;9.098;2023-03-19T00:22:36;11.00;99.90
16893;DHT22;8563;52.242;9.098;2023-03-19T00:25:09;11.00;99.90
16893;DHT22;8563;52.242;9.098;2023-03-19T00:27:41;10.90;99.90
16893;DHT22;8563;52.242;9.098;2023-03-19T00:30:14;10.90;99.90
16893;DHT22;8563;52.242;9.098;2023-03-19T00:32:46;10.90;99.90
16893;DHT22;8563;52.242;9.098;2023-03-19T00:35:19;10.90;99.90
16893;DHT22;8563;52.242;9.098;2023-03-19T00:37:53;10.80;99.90
16893;DHT22;8563;52.242;9.098;2023-03-19T00:40:25;10.80;99.90
16893;DHT22;8563;52.242;9.098;2023-03-19T00:42:57;10.80;99.90
16893;DHT22;8563;52.242;9.098;2023-03-19T00:45:29;10.80;99.90
16893;DHT22;8563;52.242;9.098;2023-03-19T00:48:01;10.70;99.90
16893;DHT22;8563;52.242;9.098;2023-03-19T00:50:34;10.70;99.90
16893;DHT22;8563;52.242;9.098;2023-03-19T00:53:07;10.70;99.90
16893;DHT22;8563;52.242;9.098;2023-03-19T00:55:39;10.60;99.90
16893;DHT22;8563;52.242;9.098;2023-03-19T00:58:12;10.60;99.90
16893;DHT22;8563;52.242;9.098;2023-03-19T01:00:44;10.50;99.90
16893;DHT22;8563;52.242;9.098;2023-03-19T01:03:17;10.50;99.90
16893;DHT22;8563;52.242;9.098;2023-03-19T01:05:50;10.50;99.90
16893;DHT22;8563;52.242;9.098;2023-03-19T01:08:24;10.50;99.90
16893;DHT22;8563;52.242;9.098;2023-03-19T01:11:04;10.50;99.90
16893;DHT22;8563;52.242;9.098;2023-03-19T01:13:36;10.40;99.90
16893;DHT22;8563;52.242;9.098;2023-03-19T01:16:09;10.40;99.90
16893;DHT22;8563;52.242;9.098;2023-03-19T01:18:42;10.40;99.90
16893;DHT22;8563;52.242;9.098;2023-03-19T01:21:14;10.40;99.90
16893;DHT22;8563;52.242;9.098;2023-03-19T01:23:52;10.30;99.90
16893;DHT22;8563;52.242;9.098;2023-03-19T01:26:26;10.30;99.90
16893;DHT22;8563;52.242;9.098;2023-03-19T01:29:04;10.20;99.90
16893;DHT22;8563;52.242;9.098;2023-03-19T01:31:36;10.20;99.90
16893;DHT22;8563;52.242;9.098;2023-03-19T01:34:29;10.20;99.90
16893;DHT22;8563;52.242;9.098;2023-03-19T01:37:09;10.20;99.90
16893;DHT22;8563;52.242;9.098;2023-03-19T01:39:45;10.20;99.90
16893;DHT22;8563;52.242;9.098;2023-03-19T01:42:19;10.20;99.90
16893;DHT22;8563;52.242;9.098;2023-03-19T01:45:02;10.20;99.90
16893;DHT22;8563;52.242;9.098;2023-03-19T01:48:18;10.20;99.90
16893;DHT22;8563;52.242;9.098;2023-03-19T01:51:04;10.10;99.90
16893;DHT22;8563;52.242;9.098;2023-03-19T01:54:10;10.10;99.90
16893;DHT22;8563;52.242;9.098;2023-03-19T01:56:57;10.10;99.90
16893;DHT22;8563;52.242;9.098;2023-03-19T01:59:53;10.00;99.90
16893;DHT22;8563;52.242;9.098;2023-03-19T02:02:46;10.00;99.90
16893;DHT22;8563;52.242;9.098;2023-03-19T02:05:44;10.00;99.90
16893;DHT22;8563;52.242;9.098;2023-03-19T02:08:20;9.90;99.90
16893;DHT22;8563;52.242;9.098;2023-03-19T02:10:54;9.90;99.90
16893;DHT22;8563;52.242;9.098;2023-03-19T02:13:33;9.80;99.90
16893;DHT22;8563;52.242;9.098;2023-03-19T02:16:06;9.80;99.90
16893;DHT22;8563;52.242;9.098;2023-03-19T02:18:38;9.70;99.90
16893;DHT22;8563;52.242;9.098;2023-03-19T02:21:14;9.70;99.90
16893;DHT22;8563;52.242;9.098;2023-03-19T02:23:52;9.70;99.90
16893;DHT22;8563;52.242;9.098;2023-03-19T02:26:46;9.70;99.90
16893;DHT22;8563;52.242;9.098;2023-03-19T02:29:19;9.70;99.90
16893;DHT22;8563;52.242;9.098;2023-03-19T02:31:51;9.70;99.90
16893;DHT22;8563;52.242;9.098;2023-03-19T02:34:36;9.70;99.90
16893;DHT22;8563;52.242;9.098;2023-03-19T02:37:13;9.60;99.90
16893;DHT22;8563;52.242;9.098;2023-03-19T02:39:50;9.60;99.90
16893;DHT22;8563;52.242;9.098;2023-03-19T02:42:27;9.50;99.90
16893;DHT22;8563;52.242;9.098;2023-03-19T02:45:00;9.50;99.90
16893;DHT22;8563;52.242;9.098;2023-03-19T02:47:32;9.40;99.90
16893;DHT22;8563;52.242;9.098;2023-03-19T02:50:06;9.40;99.90
16893;DHT22;8563;52.242;9.098;2023-03-19T02:52:38;9.40;99.90
16893;DHT22;8563;52.242;9.098;2023-03-19T02:55:11;9.30;99.90
16893;DHT22;8563;52.242;9.098;2023-03-19T02:57:44;9.30;99.90
16893;DHT22;8563;52.242;9.098;2023-03-19T03:00:17;9.40;99.90
16893;DHT22;8563;52.242;9.098;2023-03-19T03:02:50;9.40;99.90
16893;DHT22;8563;52.242;9.098;2023-03-19T03:05:22;9.40;99.90
16893;DHT22;8563;52.242;9.098;2023-03-19T03:07:55;9.50;99.90
16893;DHT22;8563;52.242;9.098;2023-03-19T03:10:27;9.60;99.90
16893;DHT22;8563;52.242;9.098;2023-03-19T03:13:01;9.70;99.90
16893;DHT22;8563;52.242;9.098;2023-03-19T03:15:35;9.70;99.90
16893;DHT22;8563;52.242;9.098;2023-03-19T03:18:07;9.80;99.90
16893;DHT22;8563;52.242;9.098;2023-03-19T03:20:40;9.80;99.90
16893;DHT22;8563;52.242;9.098;2023-03-19T03:23:12;9.90;99.90
16893;DHT22;8563;52.242;9.098;2023-03-19T03:25:48;9.90;99.90
16893;DHT22;8563;52.242;9.098;2023-03-19T03:28:21;9.80;99.90
16893;DHT22;8563;52.242;9.098;2023-03-19T03:30:57;9.80;99.90
16893;DHT22;8563;52.242;9.098;2023-03-19T03:33:30;9.80;99.90
16893;DHT22;8563;52.242;9.098;2023-03-19T03:36:03;9.90;99.90
16893;DHT22;8563;52.242;9.098;2023-03-19T03:38:35;9.90;99.90
16893;DHT22;8563;52.242;9.098;2023-03-19T03:41:07;9.90;99.90
16893;DHT22;8563;52.242;9.098;2023-03-19T03:43:41;9.90;99.90
16893;DHT22;8563;52.242;9.098;2023-03-19T03:46:13;9.90;99.90
16893;DHT22;8563;52.242;9.098;2023-03-19T03:48:46;9.90;99.90
16893;DHT22;8563;52.242;9.098;2023-03-19T03:51:19;9.90;99.90
16893;DHT22;8563;52.242;9.098;2023-03-19T03:53:52;9.90;99.90
16893;DHT22;8563;52.242;9.098;2023-03-19T03:56:24;9.90;99.90
16893;DHT22;8563;52.242;9.098;2023-03-19T03:58:58;10.00;99.90
16893;DHT22;8563;52.242;9.098;2023-03-19T04:01:31;10.00;99.90
16893;DHT22;8563;52.242;9.098;2023-03-19T04:04:03;10.00;99.90
16893;DHT22;8563;52.242;9.098;2023-03-19T04:06:36;10.00;99.90
16893;DHT22;8563;52.242;9.098;2023-03-19T04:09:17;10.00;99.90
16893;DHT22;8563;52.242;9.098;2023-03-19T04:11:50;10.00;99.90
16893;DHT22;8563;52.242;9.098;2023-03-19T04:14:23;10.10;99.90
16893;DHT22;8563;52.242;9.098;2023-03-19T04:16:56;10.10;99.90
16893;DHT22;8563;52.242;9.098;2023-03-19T04:19:28;10.10;99.90
16893;DHT22;8563;52.242;9.098;2023-03-19T04:22:01;10.20;99.90
16893;DHT22;8563;52.242;9.098;2023-03-19T04:24:35;10.20;99.90
16893;DHT22;8563;52.242;9.098;2023-03-19T04:27:08;10.20;99.90
16893;DHT22;8563;52.242;9.098;2023-03-19T04:29:43;10.30;99.90
16893;DHT22;8563;52.242;9.098;2023-03-19T04:32:16;10.30;99.90
16893;DHT22;8563;52.242;9.098;2023-03-19T04:34:48;10.30;99.90
16893;DHT22;8563;52.242;9.098;2023-03-19T04:37:21;10.30;99.90
16893;DHT22;8563;52.242;9.098;2023-03-19T04:39:54;10.40;99.90
16893;DHT22;8563;52.242;9.098;2023-03-19T04:42:27;10.40;99.90
16893;DHT22;8563;52.242;9.098;2023-03-19T04:45:14;10.40;99.90
16893;DHT22;8563;52.242;9.098;2023-03-19T04:47:48;10.50;99.90
16893;DHT22;8563;52.242;9.098;2023-03-19T04:50:22;10.50;99.90
16893;DHT22;8563;52.242;9.098;2023-03-19T04:52:55;10.50;99.90
16893;DHT22;8563;52.242;9.098;2023-03-19T04:55:29;10.50;99.90
16893;DHT22;8563;52.242;9.098;2023-03-19T04:58:15;10.50;99.90
16893;DHT22;8563;52.242;9.098;2023-03-19T05:00:49;10.50;99.90
16893;DHT22;8563;52.242;9.098;2023-03-19T05:03:27;10.50;99.90
16893;DHT22;8563;52.242;9.098;2023-03-19T05:05:59;10.50;99.90
16893;DHT22;8563;52.242;9.098;2023-03-19T05:08:31;10.40;99.90
16893;DHT22;8563;52.242;9.098;2023-03-19T05:11:04;10.40;99.90
16893;DHT22;8563;52.242;9.098;2023-03-19T05:13:46;10.40;99.90
16893;DHT22;8563;52.242;9.098;2023-03-19T05:16:20;10.30;99.90
16893;DHT22;8563;52.242;9.098;2023-03-19T05:18:52;10.30;99.90
16893;DHT22;8563;52.242;9.098;2023-03-19T05:21:24;10.30;99.90
16893;DHT22;8563;52.242;9.098;2023-03-19T05:23:59;10.30;99.90
16893;DHT22;8563;52.242;9.098;2023-03-19T05:26:34;10.30;99.90
16893;DHT22;8563;52.242;9.098;2023-03-19T05:29:27;10.30;99.90
16893;DHT22;8563;52.242;9.098;2023-03-19T05:32:16;10.30;99.90
16893;DHT22;8563;52.242;9.098;2023-03-19T05:34:49;10.30;99.90
16893;DHT22;8563;52.242;9.098;2023-03-19T05:37:22;10.30;99.90
16893;DHT22;8563;52.242;9.098;2023-03-19T05:40:00;10.30;99.90
16893;DHT22;8563;52.242;9.098;2023-03-19T05:42:33;10.30;99.90
16893;DHT22;8563;52.242;9.098;2023-03-19T05:45:05;10.30;99.90
16893;DHT22;8563;52.242;9.098;2023-03-19T05:47:50;10.30;99.90
16893;DHT22;8563;52.242;9.098;2023-03-19T05:50:24;10.30;99.90
16893;DHT22;8563;52.242;9.098;2023-03-19T05:53:15;10.30;99.90
16893;DHT22;8563;52.242;9.098;2023-03-19T05:55:56;10.30;99.90
16893;DHT22;8563;52.242;9.098;2023-03-19T05:58:29;10.40;99.90
16893;DHT22;8563;52.242;9.098;2023-03-19T06:01:02;10.40;99.90
16893;DHT22;8563;52.242;9.098;2023-03-19T06:03:36;10.40;99.90
16893;DHT22;8563;52.242;9.098;2023-03-19T06:06:12;10.50;99.90
16893;DHT22;8563;52.242;9.098;2023-03-19T06:08:47;10.50;99.90
16893;DHT22;8563;52.242;9.098;2023-03-19T06:11:29;10.50;99.90
16893;DHT22;8563;52.242;9.098;2023-03-19T06:14:22;10.60;99.90
16893;DHT22;8563;52.242;9.098;2023-03-19T06:17:13;10.60;99.90
16893;DHT22;8563;52.242;9.098;2023-03-19T06:19:48;10.70;99.90
16893;DHT22;8563;52.242;9.098;2023-03-19T06:22:20;10.70;99.90
16893;DHT22;8563;52.242;9.098;2023-03-19T06:24:52;10.80;99.90
16893;DHT22;8563;52.242;9.098;2023-03-19T06:27:25;10.90;99.90
16893;DHT22;8563;52.242;9.098;2023-03-19T06:30:07;10.90;99.90
16893;DHT22;8563;52.242;9.098;2023-03-19T06:32:40;10.90;99.90
16893;DHT22;8563;52.242;9.098;2023-03-19T06:35:17;10.90;99.90
16893;DHT22;8563;52.242;9.098;2023-03-19T06:37:52;10.80;99.90
16893;DHT22;8563;52.242;9.098;2023-03-19T06:40:24;10.70;99.90
16893;DHT22;8563;52.242;9.098;2023-03-19T06:42:56;10.60;99.90
16893;DHT22;8563;52.242;9.098;2023-03-19T06:45:28;10.50;99.90
16893;DHT22;8563;52.242;9.098;2023-03-19T06:48:00;10.50;99.90
16893;DHT22;8563;52.242;9.098;2023-03-19T06:50:34;10.60;99.90
16893;DHT22;8563;52.242;9.098;2023-03-19T06:53:06;10.70;99.90
16893;DHT22;8563;52.242;9.098;2023-03-19T06:55:39;10.80;99.90
16893;DHT22;8563;52.242;9.098;2023-03-19T06:58:11;10.70;99.90
16893;DHT22;8563;52.242;9.098;2023-03-19T07:00:43;10.70;99.90
16893;DHT22;8563;52.242;9.098;2023-03-19T07:03:16;10.70;99.90
16893;DHT22;8563;52.242;9.098;2023-03-19T07:05:50;10.80;99.90
16893;DHT22;8563;52.242;9.098;2023-03-19T07:08:22;10.90;99.90
16893;DHT22;8563;52.242;9.098;2023-03-19T07:11:02;11.00;99.90
16893;DHT22;8563;52.242;9.098;2023-03-19T07:13:35;11.20;99.90
16893;DHT22;8563;52.242;9.098;2023-03-19T07:16:08;11.30;99.90
16893;DHT22;8563;52.242;9.098;2023-03-19T07:18:40;11.30;99.90
16893;DHT22;8563;52.242;9.098;2023-03-19T07:21:13;11.50;99.90
16893;DHT22;8563;52.242;9.098;2023-03-19T07:23:46;11.60;99.90
16893;DHT22;8563;52.242;9.098;2023-03-19T07:26:20;11.60;99.90
16893;DHT22;8563;52.242;9.098;2023-03-19T07:28:52;11.70;99.90
16893;DHT22;8563;52.242;9.098;2023-03-19T07:31:24;11.80;99.90
16893;DHT22;8563;52.242;9.098;2023-03-19T07:33:57;11.80;99.90
16893;DHT22;8563;52.242;9.098;2023-03-19T07:36:31;11.90;99.90
16893;DHT22;8563;52.242;9.098;2023-03-19T07:39:03;11.90;99.90
16893;DHT22;8563;52.242;9.098;2023-03-19T07:41:37;12.00;99.90
16893;DHT22;8563;52.242;9.098;2023-03-19T07:44:09;12.10;99.90
16893;DHT22;8563;52.242;9.098;2023-03-19T07:46:41;12.10;99.90
16893;DHT22;8563;52.242;9.098;2023-03-19T07:49:14;12.20;99.90
16893;DHT22;8563;52.242;9.098;2023-03-19T07:51:47;12.30;99.90
16893;DHT22;8563;52.242;9.098;2023-03-19T07:54:20;12.40;99.90
16893;DHT22;8563;52.242;9.098;2023-03-19T07:56:53;12.40;99.90
16893;DHT22;8563;52.242;9.098;2023-03-19T07:59:25;12.60;99.90
16893;DHT22;8563;52.242;9.098;2023-03-19T08:01:58;12.90;99.90
16893;DHT22;8563;52.242;9.098;2023-03-19T08:04:30;13.20;99.90
16893;DHT22;8563;52.242;9.098;2023-03-19T08:07:04;13.50;99.90
16893;DHT22;8563;52.242;9.098;2023-03-19T08:09:36;13.50;99.90
16893;DHT22;8563;52.242;9.098;2023-03-19T08:12:09;13.70;99.90
16893;DHT22;8563;52.242;9.098;2023-03-19T08:14:41;13.80;99.90
16893;DHT22;8563;52.242;9.098;2023-03-19T08:17:13;13.90;99.90
16893;DHT22;8563;52.242;9.098;2023-03-19T08:19:46;13.90;99.90
16893;DHT22;8563;52.242;9.098;2023-03-19T08:22:20;14.10;99.90
16893;DHT22;8563;52.242;9.098;2023-03-19T08:24:52;14.10;99.90
16893;DHT22;8563;52.242;9.098;2023-03-19T08:27:24;14.10;99.90
16893;DHT22;8563;52.242;9.098;2023-03-19T08:29:57;14.00;99.90
16893;DHT22;8563;52.242;9.098;2023-03-19T08:32:29;14.00;99.90
16893;DHT22;8563;52.242;9.098;2023-03-19T08:35:20;14.10;99.90
16893;DHT22;8563;52.242;9.098;2023-03-19T08:37:54;14.00;99.90
16893;DHT22;8563;52.242;9.098;2023-03-19T08:40:26;14.10;99.90
16893;DHT22;8563;52.242;9.098;2023-03-19T08:42:58;14.20;99.90
16893;DHT22;8563;52.242;9.098;2023-03-19T08:45:31;14.30;99.90
16893;DHT22;8563;52.242;9.098;2023-03-19T08:48:03;14.40;99.90
16893;DHT22;8563;52.242;9.098;2023-03-19T08:50:36;14.60;99.90
16893;DHT22;8563;52.242;9.098;2023-03-19T08:53:09;14.70;99.90
16893;DHT22;8563;52.242;9.098;2023-03-19T08:55:41;14.80;99.90
16893;DHT22;8563;52.242;9.098;2023-03-19T08:58:14;14.90;99.90
16893;DHT22;8563;52.242;9.098;2023-03-19T09:00:46;14.80;99.90
16893;DHT22;8563;52.242;9.098;2023-03-19T09:03:19;14.80;99.90
16893;DHT22;8563;52.242;9.098;2023-03-19T09:05:51;14.70;99.90
16893;DHT22;8563;52.242;9.098;2023-03-19T09:08:26;14.70;99.90
16893;DHT22;8563;52.242;9.098;2023-03-19T09:10:59;14.80;99.90
16893;DHT22;8563;52.242;9.098;2023-03-19T09:13:31;14.80;99.90
16893;DHT22;8563;52.242;9.098;2023-03-19T09:16:04;14.80;99.90
16893;DHT22;8563;52.242;9.098;2023-03-19T09:18:37;14.80;99.90
16893;DHT22;8563;52.242;9.098;2023-03-19T09:21:09;14.90;99.90
16893;DHT22;8563;52.242;9.098;2023-03-19T09:23:42;14.90;99.90
16893;DHT22;8563;52.242;9.098;2023-03-19T09:26:16;15.00;99.90
16893;DHT22;8563;52.242;9.098;2023-03-19T09:28:48;15.00;99.90
16893;DHT22;8563;52.242;9.098;2023-03-19T09:31:21;15.10;99.90
16893;DHT22;8563;52.242;9.098;2023-03-19T09:33:53;15.10;99.90
16893;DHT22;8563;52.242;9.098;2023-03-19T09:36:25;15.00;99.90
16893;DHT22;8563;52.242;9.098;2023-03-19T09:38:59;15.00;99.90
16893;DHT22;8563;52.242;9.098;2023-03-19T09:41:39;15.10;99.90
16893;DHT22;8563;52.242;9.098;2023-03-19T09:44:22;15.00;99.90
16893;DHT22;8563;52.242;9.098;2023-03-19T09:47:07;15.20;99.90
16893;DHT22;8563;52.242;9.098;2023-03-19T09:49:46;15.20;99.90
16893;DHT22;8563;52.242;9.098;2023-03-19T09:52:29;15.30;99.90
16893;DHT22;8563;52.242;9.098;2023-03-19T09:55:12;15.20;99.90
16893;DHT22;8563;52.242;9.098;2023-03-19T09:57:47;15.20;99.90
16893;DHT22;8563;52.242;9.098;2023-03-19T10:00:21;15.20;99.90
16893;DHT22;8563;52.242;9.098;2023-03-19T10:02:59;15.10;99.90
16893;DHT22;8563;52.242;9.098;2023-03-19T10:05:43;15.20;99.90
16893;DHT22;8563;52.242;9.098;2023-03-19T10:08:35;15.20;99.90
16893;DHT22;8563;52.242;9.098;2023-03-19T10:11:26;15.20;99.90
16893;DHT22;8563;52.242;9.098;2023-03-19T10:14:16;15.20;99.90
16893;DHT22;8563;52.242;9.098;2023-03-19T10:16:55;15.20;99.90
16893;DHT22;8563;52.242;9.098;2023-03-19T10:19:38;15.30;99.90
16893;DHT22;8563;52.242;9.098;2023-03-19T10:22:15;15.30;99.90
16893;DHT22;8563;52.242;9.098;2023-03-19T10:24:49;15.20;99.90
16893;DHT22;8563;52.242;9.098;2023-03-19T10:27:27;15.20;99.90
16893;DHT22;8563;52.242;9.098;2023-03-19T10:29:59;15.30;99.90
16893;DHT22;8563;52.242;9.098;2023-03-19T10:32:38;15.40;99.90
16893;DHT22;8563;52.242;9.098;2023-03-19T10:35:18;15.30;99.90
16893;DHT22;8563;52.242;9.098;2023-03-19T10:37:50;15.20;99.90
16893;DHT22;8563;52.242;9.098;2023-03-19T10:40:32;15.20;99.90
16893;DHT22;8563;52.242;9.098;2023-03-19T10:43:15;15.20;99.90
16893;DHT22;8563;52.242;9.098;2023-03-19T10:45:48;15.20;99.90
16893;DHT22;8563;52.242;9.098;2023-03-19T10:48:24;15.30;99.90
16893;DHT22;8563;52.242;9.098;2023-03-19T10:50:58;15.40;99.90
16893;DHT22;8563;52.242;9.098;2023-03-19T10:53:33;15.50;99.90
16893;DHT22;8563;52.242;9.098;2023-03-19T10:56:14;15.70;99.90
16893;DHT22;8563;52.242;9.098;2023-03-19T10:58:58;15.80;99.90
16893;DHT22;8563;52.242;9.098;2023-03-19T11:01:32;15.90;99.90
16893;DHT22;8563;52.242;9.098;2023-03-19T11:04:18;15.90;99.90
16893;DHT22;8563;52.242;9.098;2023-03-19T11:06:52;16.00;99.90
16893;DHT22;8563;52.242;9.098;2023-03-19T11:09:30;16.10;99.90
16893;DHT22;8563;52.242;9.098;2023-03-19T11:12:16;16.20;99.90
16893;DHT22;8563;52.242;9.098;2023-03-19T11:14:51;16.10;99.90
16893;DHT22;8563;52.242;9.098;2023-03-19T11:17:25;16.20;99.90
16893;DHT22;8563;52.242;9.098;2023-03-19T11:19:59;16.20;99.90
16893;DHT22;8563;52.242;9.098;2023-03-19T11:22:39;16.30;99.90
16893;DHT22;8563;52.242;9.098;2023-03-19T11:25:15;16.40;99.90
16893;DHT22;8563;52.242;9.098;2023-03-19T11:27:57;16.60;99.90
16893;DHT22;8563;52.242;9.098;2023-03-19T11:30:42;16.70;99.90
16893;DHT22;8563;52.242;9.098;2023-03-19T11:36:22;17.00;99.90
16893;DHT22;8563;52.242;9.098;2023-03-19T11:39:05;16.90;99.90
16893;DHT22;8563;52.242;9.098;2023-03-19T11:44:52;17.10;99.90
16893;DHT22;8563;52.242;9.098;2023-03-19T11:47:34;17.30;99.90
16893;DHT22;8563;52.242;9.098;2023-03-19T11:50:15;17.10;99.90
16893;DHT22;8563;52.242;9.098;2023-03-19T11:53:02;17.00;99.90
16893;DHT22;8563;52.242;9.098;2023-03-19T11:55:39;16.80;99.90
16893;DHT22;8563;52.242;9.098;2023-03-19T11:58:29;16.60;99.90
16893;DHT22;8563;52.242;9.098;2023-03-19T12:01:10;16.30;99.90
16893;DHT22;8563;52.242;9.098;2023-03-19T12:04:26;16.30;99.90
16893;DHT22;8563;52.242;9.098;2023-03-19T12:07:10;16.20;99.90
16893;DHT22;8563;52.242;9.098;2023-03-19T12:09:50;16.20;99.90
16893;DHT22;8563;52.242;9.098;2023-03-19T12:12:28;16.20;99.90
16893;DHT22;8563;52.242;9.098;2023-03-19T12:15:12;16.10;99.90
16893;DHT22;8563;52.242;9.098;2023-03-19T12:17:57;16.10;99.90
16893;DHT22;8563;52.242;9.098;2023-03-19T12:20:41;16.00;99.90
16893;DHT22;8563;52.242;9.098;2023-03-19T12:23:27;16.00;99.90
16893;DHT22;8563;52.242;9.098;2023-03-19T12:26:04;15.80;99.90
16893;DHT22;8563;52.242;9.098;2023-03-19T12:28:41;15.70;99.90
16893;DHT22;8563;52.242;9.098;2023-03-19T12:31:35;15.50;99.90
16893;DHT22;8563;52.242;9.098;2023-03-19T12:34:19;15.30;99.90
16893;DHT22;8563;52.242;9.098;2023-03-19T12:37:03;15.20;99.90
16893;DHT22;8563;52.242;9.098;2023-03-19T12:39:40;15.00;99.90
16893;DHT22;8563;52.242;9.098;2023-03-19T12:42:18;14.90;99.90
16893;DHT22;8563;52.242;9.098;2023-03-19T12:44:53;14.90;99.90
16893;DHT22;8563;52.242;9.098;2023-03-19T12:47:32;14.80;99.90
16893;DHT22;8563;52.242;9.098;2023-03-19T12:50:10;14.90;99.90
16893;DHT22;8563;52.242;9.098;2023-03-19T12:52:49;14.80;99.90
16893;DHT22;8563;52.242;9.098;2023-03-19T12:55:25;14.90;99.90
16893;DHT22;8563;52.242;9.098;2023-03-19T12:58:02;14.90;99.90
16893;DHT22;8563;52.242;9.098;2023-03-19T13:00:39;15.00;99.90
16893;DHT22;8563;52.242;9.098;2023-03-19T13:03:18;15.10;99.90
16893;DHT22;8563;52.242;9.098;2023-03-19T13:05:57;15.30;99.90
16893;DHT22;8563;52.242;9.098;2023-03-19T13:08:34;15.50;99.90
16893;DHT22;8563;52.242;9.098;2023-03-19T13:11:11;15.80;99.90
16893;DHT22;8563;52.242;9.098;2023-03-19T13:13:50;15.90;99.90
16893;DHT22;8563;52.242;9.098;2023-03-19T13:16:35;16.10;99.90
16893;DHT22;8563;52.242;9.098;2023-03-19T13:19:17;16.10;99.90
16893;DHT22;8563;52.242;9.098;2023-03-19T13:21:53;16.10;99.90
16893;DHT22;8563;52.242;9.098;2023-03-19T13:24:29;16.10;99.90
16893;DHT22;8563;52.242;9.098;2023-03-19T13:27:06;16.10;99.90
16893;DHT22;8563;52.242;9.098;2023-03-19T13:29:53;16.10;99.90
16893;DHT22;8563;52.242;9.098;2023-03-19T13:32:34;16.00;99.90
16893;DHT22;8563;52.242;9.098;2023-03-19T13:35:18;16.00;99.90
16893;DHT22;8563;52.242;9.098;2023-03-19T13:37:58;15.90;99.90
16893;DHT22;8563;52.242;9.098;2023-03-19T13:40:43;16.00;99.90
16893;DHT22;8563;52.242;9.098;2023-03-19T13:43:40;16.10;99.90
16893;DHT22;8563;52.242;9.098;2023-03-19T13:46:36;16.20;99.90
16893;DHT22;8563;52.242;9.098;2023-03-19T13:49:28;16.20;99.90
16893;DHT22;8563;52.242;9.098;2023-03-19T13:55:31;16.40;99.90
16893;DHT22;8563;52.242;9.098;2023-03-19T13:58:17;16.40;99.90
16893;DHT22;8563;52.242;9.098;2023-03-19T14:01:05;16.50;99.90
16893;DHT22;8563;52.242;9.098;2023-03-19T14:03:40;16.50;99.90
16893;DHT22;8563;52.242;9.098;2023-03-19T14:06:30;16.50;99.90
16893;DHT22;8563;52.242;9.098;2023-03-19T14:09:04;16.40;99.90
16893;DHT22;8563;52.242;9.098;2023-03-19T14:11:38;16.40;99.90
16893;DHT22;8563;52.242;9.098;2023-03-19T14:14:13;16.40;99.90
16893;DHT22;8563;52.242;9.098;2023-03-19T14:16:48;16.40;99.90
16893;DHT22;8563;52.242;9.098;2023-03-19T14:19:23;16.60;99.90
16893;DHT22;8563;52.242;9.098;2023-03-19T14:22:08;16.60;99.90
16893;DHT22;8563;52.242;9.098;2023-03-19T14:24:40;16.60;99.90
16893;DHT22;8563;52.242;9.098;2023-03-19T14:27:16;16.60;99.90
16893;DHT22;8563;52.242;9.098;2023-03-19T14:29:51;16.80;99.90
16893;DHT22;8563;52.242;9.098;2023-03-19T14:32:30;17.00;99.90
16893;DHT22;8563;52.242;9.098;2023-03-19T14:35:04;17.10;99.90
16893;DHT22;8563;52.242;9.098;2023-03-19T14:37:43;17.00;99.90
16893;DHT22;8563;52.242;9.098;2023-03-19T14:40:19;16.70;99.90
16893;DHT22;8563;52.242;9.098;2023-03-19T14:42:59;16.40;99.90
16893;DHT22;8563;52.242;9.098;2023-03-19T14:49:01;16.30;99.90
16893;DHT22;8563;52.242;9.098;2023-03-19T14:51:52;16.50;99.90
16893;DHT22;8563;52.242;9.098;2023-03-19T14:54:32;16.50;99.90
16893;DHT22;8563;52.242;9.098;2023-03-19T14:57:06;16.40;99.90
16893;DHT22;8563;52.242;9.098;2023-03-19T14:59:39;16.30;99.90
16893;DHT22;8563;52.242;9.098;2023-03-19T15:02:20;16.20;99.90
16893;DHT22;8563;52.242;9.098;2023-03-19T15:04:58;16.10;99.90
16893;DHT22;8563;52.242;9.098;2023-03-19T15:07:33;16.10;99.90
16893;DHT22;8563;52.242;9.098;2023-03-19T15:10:13;16.10;99.90
16893;DHT22;8563;52.242;9.098;2023-03-19T15:13:12;16.00;99.90
16893;DHT22;8563;52.242;9.098;2023-03-19T15:16:06;15.80;99.90
16893;DHT22;8563;52.242;9.098;2023-03-19T15:18:43;15.80;99.90
16893;DHT22;8563;52.242;9.098;2023-03-19T15:21:17;15.80;99.90
16893;DHT22;8563;52.242;9.098;2023-03-19T15:23:50;15.80;99.90
16893;DHT22;8563;52.242;9.098;2023-03-19T15:26:30;15.90;99.90
16893;DHT22;8563;52.242;9.098;2023-03-19T15:29:02;15.90;99.90
16893;DHT22;8563;52.242;9.098;2023-03-19T15:31:43;15.80;99.90
16893;DHT22;8563;52.242;9.098;2023-03-19T15:34:20;15.90;99.90
16893;DHT22;8563;52.242;9.098;2023-03-19T15:36:58;15.90;99.90
16893;DHT22;8563;52.242;9.098;2023-03-19T15:39:35;15.90;99.90
16893;DHT22;8563;52.242;9.098;2023-03-19T15:42:08;15.90;99.90
16893;DHT22;8563;52.242;9.098;2023-03-19T15:44:43;15.80;99.90
16893;DHT22;8563;52.242;9.098;2023-03-19T15:47:20;15.70;99.90
16893;DHT22;8563;52.242;9.098;2023-03-19T15:49:57;15.60;99.90
16893;DHT22;8563;52.242;9.098;2023-03-19T15:52:34;15.50;99.90
16893;DHT22;8563;52.242;9.098;2023-03-19T15:55:09;15.40;99.90
16893;DHT22;8563;52.242;9.098;2023-03-19T15:57:44;15.30;99.90
16893;DHT22;8563;52.242;9.098;2023-03-19T16:00:17;15.30;99.90
16893;DHT22;8563;52.242;9.098;2023-03-19T16:02:50;15.30;99.90
16893;DHT22;8563;52.242;9.098;2023-03-19T16:05:24;15.30;99.90
16893;DHT22;8563;52.242;9.098;2023-03-19T16:08:00;15.40;99.90
16893;DHT22;8563;52.242;9.098;2023-03-19T16:10:38;15.40;99.90
16893;DHT22;8563;52.242;9.098;2023-03-19T16:13:26;15.40;99.90
16893;DHT22;8563;52.242;9.098;2023-03-19T16:16:01;15.50;99.90
16893;DHT22;8563;52.242;9.098;2023-03-19T16:18:41;15.50;99.90
16893;DHT22;8563;52.242;9.098;2023-03-19T16:21:16;15.50;99.90
16893;DHT22;8563;52.242;9.098;2023-03-19T16:23:54;15.50;99.90
16893;DHT22;8563;52.242;9.098;2023-03-19T16:26:30;15.40;99.90
16893;DHT22;8563;52.242;9.098;2023-03-19T16:29:17;15.40;99.90
16893;DHT22;8563;52.242;9.098;2023-03-19T16:31:52;15.40;99.90
16893;DHT22;8563;52.242;9.098;2023-03-19T16:34:38;15.40;99.90
16893;DHT22;8563;52.242;9.098;2023-03-19T16:37:32;15.30;99.90
16893;DHT22;8563;52.242;9.098;2023-03-19T16:40:39;15.30;99.90
16893;DHT22;8563;52.242;9.098;2023-03-19T16:43:18;15.30;99.90
16893;DHT22;8563;52.242;9.098;2023-03-19T16:45:53;15.30;99.90
16893;DHT22;8563;52.242;9.098;2023-03-19T16:48:34;15.30;99.90
16893;DHT22;8563;52.242;9.098;2023-03-19T16:51:11;15.20;99.90
16893;DHT22;8563;52.242;9.098;2023-03-19T16:53:45;15.00;99.90
16893;DHT22;8563;52.242;9.098;2023-03-19T16:56:20;14.80;99.90
16893;DHT22;8563;52.242;9.098;2023-03-19T16:58:53;14.70;99.90
16893;DHT22;8563;52.242;9.098;2023-03-19T17:01:25;14.60;99.90
16893;DHT22;8563;52.242;9.098;2023-03-19T17:03:57;14.50;99.90